createdAt,value
2018-09-10T00:01:52.125Z,76.30
2018-09-10T00:04:27.941Z,76.10
2018-09-10T00:06:59.751Z,76.20
2018-09-10T00:09:29.663Z,76.20
2018-09-10T00:12:07.071Z,76.40
2018-09-10T00:14:37.742Z,76.30
2018-09-10T00:17:09.190Z,76.00
2018-09-10T00:19:40.413Z,76.10
2018-09-10T00:22:10.493Z,76.50
2018-09-10T00:24:40.511Z,76.50
2018-09-10T00:27:12.236Z,76.60
2018-09-10T00:29:51.780Z,76.50
2018-09-10T00:32:23.757Z,76.50
2018-09-10T00:34:53.754Z,76.50
2018-09-10T00:37:26.816Z,76.50
2018-09-10T00:40:07.271Z,76.40
2018-09-10T00:42:37.370Z,76.40
2018-09-10T00:45:09.060Z,76.60
2018-09-10T00:47:40.571Z,76.60
2018-09-10T00:50:19.406Z,76.50
2018-09-10T00:52:49.356Z,76.40
2018-09-10T00:55:20.987Z,76.50
2018-09-10T00:57:52.465Z,77.40
2018-09-10T01:00:23.566Z,76.80
2018-09-10T01:02:54.879Z,76.60
2018-09-10T01:05:26.779Z,76.80
2018-09-10T01:07:58.408Z,76.40
2018-09-10T01:10:29.948Z,76.20
2018-09-10T01:13:01.918Z,76.20
2018-09-10T01:15:33.552Z,76.50
2018-09-10T01:18:04.862Z,76.50
2018-09-10T01:20:37.702Z,76.40
2018-09-10T01:23:16.934Z,76.40
2018-09-10T01:25:54.162Z,76.40
2018-09-10T01:28:34.003Z,76.50
2018-09-10T01:31:11.828Z,76.70
2018-09-10T01:33:48.388Z,76.20
2018-09-10T01:36:21.849Z,76.00
2018-09-10T01:39:00.687Z,75.90
2018-09-10T01:41:30.526Z,76.00
2018-09-10T01:44:09.497Z,75.80
2018-09-10T01:46:40.917Z,75.70
2018-09-10T01:49:19.889Z,75.60
2018-09-10T01:51:51.409Z,75.60
2018-09-10T01:54:30.915Z,75.50
2018-09-10T01:57:06.326Z,75.50
2018-09-10T01:59:38.024Z,75.60
2018-09-10T02:02:15.464Z,75.80
2018-09-10T02:05:50.273Z,76.10
2018-09-10T02:08:29.427Z,76.20
2018-09-10T02:11:00.986Z,76.30
2018-09-10T02:13:32.133Z,76.20
2018-09-10T02:16:03.852Z,76.40
2018-09-10T02:18:40.824Z,76.20
2018-09-10T02:21:20.151Z,76.20
2018-09-10T02:23:51.260Z,76.20
2018-09-10T02:26:31.263Z,76.10
2018-09-10T02:29:02.833Z,76.30
2018-09-10T02:31:34.683Z,75.90
2018-09-10T02:34:10.762Z,76.20
2018-09-10T02:36:41.843Z,76.10
2018-09-10T02:39:11.590Z,76.10
2018-09-10T02:41:45.651Z,76.30
2018-09-10T02:44:16.855Z,76.20
2018-09-10T02:46:49.029Z,76.10
2018-09-10T02:49:21.002Z,76.10
2018-09-10T02:51:52.635Z,76.10
2018-09-10T02:54:31.826Z,76.10
2018-09-10T02:57:07.928Z,76.20
2018-09-10T02:59:46.626Z,76.00
2018-09-10T03:02:18.152Z,76.10
2018-09-10T03:04:49.787Z,76.20
2018-09-10T03:07:21.538Z,76.30
2018-09-10T03:10:00.611Z,76.00
2018-09-10T03:12:37.579Z,76.80
2018-09-10T03:15:08.918Z,76.30
2018-09-10T03:17:40.799Z,76.40
2018-09-10T03:20:10.772Z,76.30
2018-09-10T03:22:42.209Z,76.40
2018-09-10T03:25:21.619Z,76.30
2018-09-10T03:27:53.330Z,76.40
2018-09-10T03:30:24.409Z,76.10
2018-09-10T03:32:55.969Z,76.10
2018-09-10T03:35:27.308Z,76.20
2018-09-10T03:38:06.906Z,76.00
2018-09-10T03:40:38.139Z,75.90
2018-09-10T03:43:17.192Z,76.00
2018-09-10T03:45:47.262Z,76.10
2018-09-10T03:48:18.663Z,75.80
2018-09-10T03:50:50.154Z,75.60
2018-09-10T03:53:21.693Z,75.60
2018-09-10T03:55:53.382Z,75.50
2018-09-10T03:58:24.556Z,75.70
2018-09-10T04:01:03.295Z,75.40
2018-09-10T04:03:42.651Z,75.60
2018-09-10T04:06:21.805Z,75.70
2018-09-10T04:09:00.354Z,75.90
2018-09-10T04:11:36.224Z,76.00
2018-09-10T04:14:15.815Z,75.90
2018-09-10T04:16:47.463Z,76.60
2018-09-10T04:19:23.145Z,76.00
2018-09-10T04:21:54.543Z,76.20
2018-09-10T04:24:26.734Z,75.90
2018-09-10T04:26:56.503Z,75.60
2018-09-10T04:29:26.713Z,75.90
2018-09-10T04:33:08.904Z,75.60
2018-09-10T04:35:40.463Z,75.80
2018-09-10T04:38:19.599Z,75.70
2018-09-10T04:40:58.874Z,75.80
2018-09-10T04:43:30.065Z,75.80
2018-09-10T04:46:01.725Z,75.80
2018-09-10T04:48:33.434Z,75.80
2018-09-10T04:51:11.051Z,76.00
2018-09-10T04:53:49.928Z,76.10
2018-09-10T04:56:22.339Z,76.00
2018-09-10T04:58:54.148Z,75.60
2018-09-10T05:01:25.618Z,76.00
2018-09-10T05:03:57.419Z,76.10
2018-09-10T05:06:29.278Z,76.20
2018-09-10T05:09:02.748Z,75.90
2018-09-10T05:11:41.507Z,76.00
2018-09-10T05:14:12.997Z,76.10
2018-09-10T05:16:52.825Z,76.10
2018-09-10T05:19:24.129Z,76.40
2018-09-10T05:21:55.805Z,76.60
2018-09-10T05:24:27.068Z,77.00
2018-09-10T05:27:04.268Z,76.80
2018-09-10T05:29:35.890Z,77.00
2018-09-10T05:32:07.597Z,77.10
2018-09-10T05:34:39.553Z,76.80
2018-09-10T05:37:11.282Z,76.90
2018-09-10T05:39:42.977Z,76.90
2018-09-10T05:42:14.463Z,76.80
2018-09-10T05:44:53.686Z,77.00
2018-09-10T05:47:25.374Z,76.80
2018-09-10T05:50:04.067Z,76.90
2018-09-10T05:52:35.475Z,76.60
2018-09-10T05:55:07.008Z,75.60
2018-09-10T05:57:37.358Z,75.50
2018-09-10T06:00:09.607Z,74.50
2018-09-10T06:02:43.259Z,73.70
2018-09-10T06:05:13.268Z,73.90
2018-09-10T06:07:43.217Z,73.00
2018-09-10T06:10:14.559Z,71.40
2018-09-10T06:12:45.827Z,71.20
2018-09-10T06:15:15.869Z,69.40
2018-09-10T06:17:47.637Z,67.00
2018-09-10T06:20:18.597Z,64.50
2018-09-10T06:22:50.197Z,62.50
2018-09-10T06:25:21.817Z,61.70
2018-09-10T06:28:01.274Z,62.70
2018-09-10T06:30:33.630Z,64.30
2018-09-10T06:33:05.670Z,66.00
2018-09-10T06:35:35.627Z,66.50
2018-09-10T06:38:07.689Z,66.90
2018-09-10T06:40:46.711Z,67.40
2018-09-10T06:43:22.574Z,68.10
2018-09-10T06:45:54.414Z,68.90
2018-09-10T06:48:25.816Z,69.50
2018-09-10T06:50:57.035Z,69.60
2018-09-10T06:53:28.415Z,69.70
2018-09-10T06:56:07.397Z,69.60
2018-09-10T06:58:39.898Z,69.20
2018-09-10T07:01:18.754Z,69.90
2018-09-10T07:03:50.363Z,69.70
2018-09-10T07:06:29.451Z,69.80
2018-09-10T07:09:09.319Z,69.80
2018-09-10T07:11:48.276Z,70.00
2018-09-10T07:14:27.799Z,70.70
2018-09-10T07:16:59.169Z,70.10
2018-09-10T07:19:38.343Z,69.90
2018-09-10T07:22:17.239Z,69.60
2018-09-10T07:24:56.794Z,69.10
2018-09-10T07:27:35.846Z,68.00
2018-09-10T07:30:15.185Z,68.30
2018-09-10T07:32:51.742Z,67.40
2018-09-10T07:35:31.182Z,68.50
2018-09-10T07:38:10.205Z,68.90
2018-09-10T07:40:49.456Z,68.80
2018-09-10T07:43:28.629Z,67.60
2018-09-10T07:46:08.065Z,67.60
2018-09-10T07:48:46.892Z,68.20
2018-09-10T07:51:25.685Z,67.50
2018-09-10T07:54:00.112Z,68.90
2018-09-10T07:56:38.124Z,68.20
2018-09-10T07:59:17.749Z,68.60
2018-09-10T08:01:55.109Z,68.50
2018-09-10T08:04:35.878Z,68.60
2018-09-10T08:07:14.923Z,67.40
2018-09-10T08:09:54.066Z,67.00
2018-09-10T08:12:33.607Z,67.20
2018-09-10T08:15:13.028Z,66.70
2018-09-10T08:17:52.344Z,67.10
2018-09-10T08:20:31.411Z,67.10
2018-09-10T08:23:09.161Z,67.50
2018-09-10T08:25:48.391Z,68.40
2018-09-10T08:28:25.179Z,68.80
2018-09-10T08:31:04.248Z,66.60
2018-09-10T08:33:44.725Z,67.00
2018-09-10T08:36:24.173Z,66.80
2018-09-10T08:39:03.431Z,67.20
2018-09-10T08:41:42.447Z,67.50
2018-09-10T08:44:21.405Z,66.80
2018-09-10T08:47:00.524Z,66.60
2018-09-10T08:49:39.428Z,66.20
2018-09-10T08:52:18.460Z,67.30
2018-09-10T08:54:57.814Z,66.50
2018-09-10T08:57:36.196Z,66.10
2018-09-10T09:00:15.371Z,66.50
2018-09-10T09:02:54.452Z,66.60
2018-09-10T09:05:31.675Z,67.80
2018-09-10T09:08:02.344Z,69.20
2018-09-10T09:10:35.181Z,67.70
2018-09-10T09:13:07.504Z,67.70
2018-09-10T09:15:39.843Z,68.20
2018-09-10T09:18:16.513Z,66.70
2018-09-10T09:20:55.590Z,66.80
2018-09-10T09:23:33.564Z,66.30
2018-09-10T09:26:13.652Z,65.50
2018-09-10T09:28:53.170Z,65.70
2018-09-10T09:31:28.499Z,65.70
2018-09-10T09:34:04.596Z,64.80
2018-09-10T09:36:46.517Z,64.10
2018-09-10T09:39:30.992Z,63.80
2018-09-10T09:42:13.687Z,62.90
2018-09-10T09:44:57.841Z,62.80
2018-09-10T09:47:37.147Z,62.20
2018-09-10T09:50:16.121Z,61.10
2018-09-10T09:52:55.789Z,57.90
2018-09-10T09:55:39.958Z,57.20
2018-09-10T09:58:13.458Z,56.40
2018-09-10T10:01:03.586Z,56.10
2018-09-10T10:03:47.980Z,54.20
2018-09-10T10:06:27.902Z,54.20
2018-09-10T10:09:08.916Z,52.50
2018-09-10T10:11:47.909Z,51.30
2018-09-10T10:14:27.159Z,50.40
2018-09-10T10:17:02.895Z,51.50
2018-09-10T10:19:34.654Z,50.10
2018-09-10T10:22:10.756Z,49.20
2018-09-10T10:24:50.150Z,48.10
2018-09-10T10:27:29.289Z,46.90
2018-09-10T10:30:05.601Z,46.30
2018-09-10T10:32:37.631Z,46.70
2018-09-10T10:35:12.619Z,47.10
2018-09-10T10:37:51.583Z,47.40
2018-09-10T10:40:28.245Z,45.50
2018-09-10T10:43:07.490Z,44.90
2018-09-10T10:45:44.500Z,43.80
2018-09-10T10:48:20.805Z,44.00
2018-09-10T10:50:56.970Z,44.40
2018-09-10T10:53:34.792Z,44.00
2018-09-10T10:56:14.140Z,44.50
2018-09-10T10:58:52.743Z,44.80
2018-09-10T11:01:32.429Z,43.20
2018-09-10T11:04:09.921Z,43.50
2018-09-10T11:06:46.095Z,42.40
2018-09-10T11:09:22.894Z,41.50
2018-09-10T11:12:00.275Z,41.80
2018-09-10T11:14:39.493Z,40.80
2018-09-10T11:17:15.605Z,41.80
2018-09-10T11:19:54.426Z,39.60
2018-09-10T11:22:33.970Z,40.80
2018-09-10T11:25:10.163Z,40.10
2018-09-10T11:27:49.803Z,40.40
2018-09-10T11:30:28.778Z,40.00
2018-09-10T11:33:08.259Z,39.00
2018-09-10T11:35:45.456Z,41.10
2018-09-10T11:38:17.294Z,39.10
2018-09-10T11:40:51.460Z,38.60
2018-09-10T11:43:29.836Z,39.40
2018-09-10T11:46:09.025Z,40.10
2018-09-10T11:48:47.991Z,41.20
2018-09-10T11:51:25.745Z,42.10
2018-09-10T11:54:05.125Z,40.70
2018-09-10T11:56:44.034Z,40.40
2018-09-10T11:59:24.288Z,39.70
2018-09-10T12:02:03.788Z,40.30
2018-09-10T12:04:43.211Z,40.60
2018-09-10T12:07:22.046Z,40.40
2018-09-10T12:10:01.178Z,41.40
2018-09-10T12:12:40.320Z,40.70
2018-09-10T12:15:19.686Z,39.20
2018-09-10T12:17:56.173Z,42.50
2018-09-10T12:20:32.484Z,41.80
2018-09-10T12:23:09.170Z,41.40
2018-09-10T12:25:44.100Z,41.10
2018-09-10T12:28:20.520Z,41.70
2018-09-10T12:30:55.668Z,41.00
2018-09-10T12:33:33.383Z,41.40
2018-09-10T12:36:05.392Z,41.90
2018-09-10T12:38:44.267Z,42.30
2018-09-10T12:41:19.933Z,41.10
2018-09-10T12:43:55.934Z,42.40
2018-09-10T12:46:29.251Z,41.20
2018-09-10T12:49:00.815Z,41.00
2018-09-10T12:51:33.624Z,41.60
2018-09-10T12:54:09.470Z,42.00
2018-09-10T12:56:44.944Z,43.30
2018-09-10T12:59:16.545Z,42.50
2018-09-10T13:01:51.835Z,43.40
2018-09-10T13:04:27.470Z,43.30
2018-09-10T13:07:06.668Z,45.10
2018-09-10T13:09:43.433Z,44.00
2018-09-10T13:12:21.220Z,45.70
2018-09-10T13:15:00.365Z,45.20
2018-09-10T13:17:39.467Z,45.80
2018-09-10T13:20:18.538Z,46.00
2018-09-10T13:22:57.532Z,45.00
2018-09-10T13:25:30.722Z,45.00
2018-09-10T13:28:09.644Z,45.10
2018-09-10T13:30:48.408Z,46.20
2018-09-10T13:33:20.050Z,45.00
2018-09-10T13:36:00.467Z,45.30
2018-09-10T13:38:39.535Z,46.00
2018-09-10T13:41:18.049Z,45.70
2018-09-10T13:43:53.496Z,48.00
2018-09-10T13:46:32.922Z,46.00
2018-09-10T13:49:09.407Z,46.80
2018-09-10T13:51:45.067Z,46.00
2018-09-10T13:54:20.824Z,46.10
2018-09-10T13:56:59.715Z,46.10
2018-09-10T13:59:36.293Z,47.10
2018-09-10T14:02:15.200Z,48.00
2018-09-10T14:04:53.221Z,48.30
2018-09-10T14:07:29.103Z,46.00
2018-09-10T14:10:06.550Z,46.30
2018-09-10T14:12:42.826Z,47.90
2018-09-10T14:15:18.083Z,46.00
2018-09-10T14:17:54.065Z,47.10
2018-09-10T14:20:28.259Z,47.20
2018-09-10T14:23:04.694Z,47.00
2018-09-10T14:25:41.519Z,46.70
2018-09-10T14:28:20.528Z,46.80
2018-09-10T14:30:59.570Z,45.20
2018-09-10T14:33:38.435Z,44.60
2018-09-10T14:36:17.487Z,44.80
2018-09-10T14:38:56.891Z,44.80
2018-09-10T14:41:32.771Z,46.20
2018-09-10T14:44:13.448Z,45.10
2018-09-10T14:46:52.318Z,43.30
2018-09-10T14:49:31.432Z,41.70
2018-09-10T14:52:10.424Z,42.70
2018-09-10T14:54:49.792Z,44.00
2018-09-10T14:57:29.006Z,44.60
2018-09-10T15:00:08.274Z,44.00
2018-09-10T15:02:38.410Z,44.30
2018-09-10T15:05:11.782Z,45.20
2018-09-10T15:07:43.563Z,45.90
2018-09-10T15:10:16.242Z,46.80
2018-09-10T15:12:48.005Z,45.90
2018-09-10T15:15:23.105Z,47.90
2018-09-10T15:18:00.767Z,46.50
2018-09-10T15:20:32.496Z,48.20
2018-09-10T15:23:03.834Z,48.80
2018-09-10T15:25:35.693Z,48.20
2018-09-10T15:28:15.058Z,48.20
2018-09-10T15:30:52.645Z,47.40
2018-09-10T15:33:31.852Z,49.50
2018-09-10T15:36:02.136Z,48.30
2018-09-10T15:38:33.776Z,48.50
2018-09-10T15:41:06.187Z,49.00
2018-09-10T15:43:38.221Z,47.40
2018-09-10T15:46:11.367Z,48.70
2018-09-10T15:48:41.888Z,47.00
2018-09-10T15:51:12.133Z,46.80
2018-09-10T15:53:42.518Z,48.20
2018-09-10T15:56:13.009Z,47.20
2018-09-10T15:58:43.228Z,47.30
2018-09-10T16:01:13.369Z,47.10
2018-09-10T16:03:52.403Z,46.40
2018-09-10T16:06:25.044Z,47.70
2018-09-10T16:08:55.132Z,47.80
2018-09-10T16:11:25.407Z,48.00
2018-09-10T16:13:56.150Z,47.20
2018-09-10T16:16:51.683Z,47.10
2018-09-10T16:19:23.582Z,50.20
2018-09-10T16:21:53.772Z,48.80
2018-09-10T16:24:27.583Z,48.50
2018-09-10T16:26:59.013Z,48.80
2018-09-10T16:29:29.303Z,49.00
2018-09-10T16:32:00.733Z,48.70
2018-09-10T16:34:58.373Z,48.20
2018-09-10T16:37:28.312Z,49.60
2018-09-10T16:40:00.113Z,51.70
2018-09-10T16:42:31.303Z,52.60
2018-09-10T16:45:15.552Z,53.90
2018-09-10T16:47:46.033Z,54.10
2018-09-10T16:50:37.683Z,54.70
2018-09-10T16:53:09.072Z,55.20
2018-09-10T16:56:01.252Z,55.40
2018-09-10T16:58:32.963Z,55.00
2018-09-10T17:01:03.743Z,54.50
2018-09-10T17:03:34.143Z,53.80
2018-09-10T17:06:41.781Z,55.10
2018-09-10T17:09:14.963Z,57.10
2018-09-10T17:11:46.353Z,57.80
2018-09-10T17:14:35.825Z,58.50
2018-09-10T17:17:06.254Z,58.50
2018-09-10T17:19:37.644Z,59.20
2018-09-10T17:22:07.883Z,59.40
2018-09-10T17:24:41.973Z,60.00
2018-09-10T17:27:12.332Z,59.60
2018-09-10T17:29:44.671Z,59.60
2018-09-10T17:32:15.003Z,59.70
2018-09-10T17:34:50.885Z,59.70
2018-09-10T17:37:21.319Z,61.30
2018-09-10T17:39:52.846Z,62.30
2018-09-10T17:42:23.722Z,63.00
2018-09-10T17:45:01.592Z,63.40
2018-09-10T17:47:33.174Z,63.40
2018-09-10T17:50:04.912Z,63.90
2018-09-10T17:52:35.343Z,64.30
2018-09-10T17:55:13.018Z,64.40
2018-09-10T17:57:47.553Z,65.00
2018-09-10T18:00:19.323Z,64.60
2018-09-10T18:02:52.532Z,64.70
2018-09-10T18:05:51.881Z,65.40
2018-09-10T18:08:22.752Z,65.40
2018-09-10T18:10:54.346Z,64.30
2018-09-10T18:13:27.185Z,64.50
2018-09-10T18:16:40.223Z,65.60
2018-09-10T18:19:15.492Z,66.20
2018-09-10T18:21:48.934Z,65.80
2018-09-10T18:24:20.544Z,66.40
2018-09-10T18:26:55.663Z,66.10
2018-09-10T18:29:28.084Z,66.30
2018-09-10T18:32:06.163Z,67.00
2018-09-10T18:34:51.151Z,67.20
2018-09-10T18:37:22.753Z,67.80
2018-09-10T18:39:54.748Z,67.90
2018-09-10T18:42:36.072Z,68.10
2018-09-10T18:45:38.034Z,68.10
2018-09-10T18:48:11.494Z,68.10
2018-09-10T18:50:44.284Z,68.40
2018-09-10T18:53:16.192Z,68.40
2018-09-10T18:55:56.254Z,68.20
2018-09-10T18:58:29.253Z,68.30
2018-09-10T19:01:02.023Z,69.30
2018-09-10T19:03:44.803Z,70.00
2018-09-10T19:06:20.852Z,70.00
2018-09-10T19:08:52.753Z,70.20
2018-09-10T19:11:29.864Z,70.50
2018-09-10T19:14:19.863Z,70.60
2018-09-10T19:16:52.803Z,70.50
2018-09-10T19:19:27.382Z,70.60
2018-09-10T19:22:04.083Z,69.80
2018-09-10T19:24:36.343Z,69.90
2018-09-10T19:27:14.374Z,69.60
2018-09-10T19:30:01.594Z,69.40
2018-09-10T19:32:34.143Z,69.80
2018-09-10T19:35:10.072Z,70.10
2018-09-10T19:37:40.001Z,70.00
2018-09-10T19:40:19.892Z,70.40
2018-09-10T19:42:57.874Z,69.50
2018-09-10T19:45:32.372Z,69.40
2018-09-10T19:48:07.153Z,69.00
2018-09-10T19:50:42.139Z,68.90
2018-09-10T19:53:39.793Z,68.40
2018-09-10T19:56:18.175Z,68.10
2018-09-10T19:58:53.875Z,68.20
2018-09-10T20:01:30.587Z,69.00
2018-09-10T20:07:38.475Z,69.50
2018-09-10T20:10:13.745Z,69.60
2018-09-10T20:12:46.828Z,69.70
2018-09-10T20:15:27.278Z,69.50
2018-09-10T20:18:07.365Z,69.40
2018-09-10T20:20:43.285Z,69.20
2018-09-10T20:23:17.246Z,70.40
2018-09-10T20:25:52.284Z,70.20
2018-09-10T20:28:28.736Z,70.00
2018-09-10T20:31:05.054Z,70.40
2018-09-10T20:34:10.519Z,69.80
2018-09-10T20:36:41.094Z,69.60
2018-09-10T20:39:14.007Z,69.70
2018-09-10T20:41:53.887Z,70.00
2018-09-10T20:44:25.956Z,69.50
2018-09-10T20:47:01.128Z,69.80
2018-09-10T20:49:34.254Z,69.80
2018-09-10T20:52:08.136Z,69.70
2018-09-10T20:54:39.527Z,70.20
2018-09-10T20:57:10.224Z,70.10
2018-09-10T20:59:42.115Z,70.00
2018-09-10T21:02:13.805Z,70.10
2018-09-10T21:04:45.806Z,69.90
2018-09-10T21:07:19.965Z,70.40
2018-09-10T21:09:54.755Z,70.60
2018-09-10T21:12:27.676Z,70.60
2018-09-10T21:15:00.614Z,70.50
2018-09-10T21:17:31.474Z,70.30
2018-09-10T21:20:02.195Z,70.50
2018-09-10T21:22:32.482Z,70.70
2018-09-10T21:25:03.934Z,70.50
2018-09-10T21:27:38.384Z,71.10
2018-09-10T21:30:09.795Z,70.50
2018-09-10T21:32:39.978Z,70.50
2018-09-10T21:35:11.186Z,70.60
2018-09-10T21:37:42.099Z,70.70
2018-09-10T21:40:13.446Z,70.60
2018-09-10T21:42:45.386Z,70.20
2018-09-10T21:45:16.788Z,70.30
2018-09-10T21:47:48.323Z,70.50
2018-09-10T21:50:19.495Z,71.00
2018-09-10T21:52:51.663Z,71.00
2018-09-10T21:55:26.225Z,70.70
2018-09-10T21:57:56.158Z,70.70
2018-09-10T22:00:27.965Z,71.20
2018-09-10T22:03:01.755Z,70.70
2018-09-10T22:05:35.207Z,70.40
2018-09-10T22:08:05.074Z,70.70
2018-09-10T22:10:35.779Z,70.30
2018-09-10T22:13:09.765Z,70.30
2018-09-10T22:15:40.325Z,70.60
2018-09-10T22:18:11.187Z,70.90
2018-09-10T22:20:44.795Z,70.70
2018-09-10T22:23:15.425Z,70.60
2018-09-10T22:25:48.836Z,71.00
2018-09-10T22:28:21.918Z,71.00
2018-09-10T22:30:54.645Z,71.30
2018-09-10T22:33:25.278Z,71.10
2018-09-10T22:35:56.620Z,71.70
2018-09-10T22:38:28.231Z,71.40
2018-09-10T22:40:57.960Z,71.50
2018-09-10T22:43:29.927Z,71.50
2018-09-10T22:46:01.980Z,71.20
2018-09-10T22:48:34.440Z,71.30
2018-09-10T22:51:04.231Z,71.10
2018-09-10T22:53:35.530Z,70.60
2018-09-10T22:56:07.243Z,70.30
2018-09-10T22:58:39.131Z,70.30
2018-09-10T23:01:10.791Z,70.60
2018-09-10T23:03:41.850Z,70.80
2018-09-10T23:06:13.881Z,70.90
2018-09-10T23:08:44.148Z,70.90
2018-09-10T23:11:14.790Z,70.80
2018-09-10T23:13:46.522Z,70.80
2018-09-10T23:16:17.551Z,71.00
2018-09-10T23:18:49.062Z,70.40
2018-09-10T23:21:21.361Z,70.60
2018-09-10T23:23:52.900Z,70.30
2018-09-10T23:26:26.601Z,71.00
2018-09-10T23:28:57.180Z,70.90
2018-09-10T23:31:30.631Z,70.90
2018-09-10T23:34:01.945Z,70.80
2018-09-10T23:36:33.840Z,71.00
2018-09-10T23:39:06.150Z,71.10
2018-09-10T23:41:39.101Z,70.60
2018-09-10T23:44:11.040Z,70.80
2018-09-10T23:46:42.239Z,70.80
2018-09-10T23:49:12.400Z,71.00
2018-09-10T23:51:43.160Z,70.90
2018-09-10T23:54:14.640Z,70.80
2018-09-10T23:56:47.610Z,70.50
2018-09-10T23:59:19.081Z,70.40
